createdAt,value
2022-09-22T00:13:07.371Z,97.40
2022-09-22T00:28:13.449Z,100.40
2022-09-22T00:43:21.471Z,99.41
2022-09-22T00:58:33.396Z,99.78
2022-09-22T01:13:47.448Z,100.21
2022-09-22T01:29:33.675Z,101.32
2022-09-22T01:44:43.935Z,101.33
2022-09-22T01:59:53.456Z,101.41
2022-09-22T02:14:59.277Z,100.76
2022-09-22T02:30:08.444Z,99.99
2022-09-22T02:45:19.016Z,102.27
2022-09-22T03:00:24.719Z,102.41
2022-09-22T03:15:30.394Z,101.23
2022-09-22T03:30:37.603Z,100.38
2022-09-22T03:45:43.126Z,100.76
2022-09-22T04:00:50.663Z,101.32
2022-09-22T04:15:56.412Z,99.61
2022-09-22T04:31:02.415Z,101.56
2022-09-22T04:46:08.153Z,102.07
2022-09-22T05:01:13.717Z,100.71
2022-09-22T05:16:20.303Z,102.90
2022-09-22T05:31:26.076Z,102.50
2022-09-22T05:46:31.700Z,104.48
2022-09-22T06:01:39.241Z,103.09
2022-09-22T06:16:44.954Z,104.83
2022-09-22T06:31:50.666Z,101.77
2022-09-22T06:46:56.276Z,98.68
2022-09-22T07:02:04.615Z,98.44
2022-09-22T07:17:10.616Z,96.95
2022-09-22T07:32:16.402Z,93.69
2022-09-22T07:47:42.214Z,84.93
2022-09-22T08:02:54.619Z,79.14
2022-09-22T08:18:00.279Z,76.02
2022-09-22T08:33:06.358Z,73.56
2022-09-22T08:48:35.617Z,69.90
2022-09-22T09:03:56.338Z,67.93
2022-09-22T09:19:08.283Z,65.69
2022-09-22T09:34:18.113Z,63.77
2022-09-22T09:49:24.829Z,62.89
2022-09-22T10:04:35.915Z,63.08
2022-09-22T10:19:41.776Z,61.16
2022-09-22T10:34:49.214Z,60.86
2022-09-22T10:50:12.442Z,60.59
2022-09-22T11:06:02.192Z,59.34
2022-09-22T11:21:18.982Z,58.84
2022-09-22T11:36:30.551Z,58.87
2022-09-22T11:51:52.986Z,61.09
2022-09-22T12:06:59.938Z,59.28
2022-09-22T12:22:17.157Z,59.06
2022-09-22T12:37:30.391Z,57.04
2022-09-22T12:53:02.742Z,59.20
2022-09-22T13:08:15.837Z,55.36
2022-09-22T13:23:21.734Z,55.62
2022-09-22T13:38:27.866Z,57.00
2022-09-22T13:53:34.061Z,56.12
2022-09-22T14:08:40.409Z,55.71
2022-09-22T14:23:50.145Z,55.70
2022-09-22T14:39:09.566Z,56.68
2022-09-22T14:54:19.126Z,59.30
2022-09-22T15:09:29.191Z,60.64
2022-09-22T15:24:35.246Z,60.15
2022-09-22T15:39:41.103Z,61.16
2022-09-22T15:54:48.503Z,63.68
2022-09-22T16:09:55.354Z,62.26
2022-09-22T16:25:01.254Z,64.66
2022-09-22T16:40:08.185Z,66.08
2022-09-22T16:55:13.934Z,66.67
2022-09-22T17:10:20.336Z,72.19
2022-09-22T17:25:29.384Z,81.55
2022-09-22T17:40:35.254Z,81.72
2022-09-22T17:55:41.211Z,84.49
2022-09-22T18:10:47.126Z,86.90
2022-09-22T18:25:52.823Z,89.55
2022-09-22T18:40:58.537Z,90.91
2022-09-22T18:56:11.948Z,91.85
2022-09-22T19:11:18.716Z,92.53
2022-09-22T19:26:24.719Z,93.27
2022-09-22T19:41:34.944Z,94.27
2022-09-22T19:56:40.863Z,95.26
2022-09-22T20:11:48.831Z,95.94
2022-09-22T20:26:55.113Z,96.29
2022-09-22T20:42:01.334Z,96.96
2022-09-22T20:57:07.409Z,97.57
2022-09-22T21:12:13.806Z,97.13
2022-09-22T21:27:20.132Z,98.58
2022-09-22T21:42:25.750Z,96.84
2022-09-22T21:57:31.296Z,98.33
2022-09-22T22:12:37.997Z,97.53
2022-09-22T22:27:45.939Z,97.00
2022-09-22T22:42:51.723Z,98.32
2022-09-22T22:57:57.693Z,98.96
2022-09-22T23:13:04.132Z,98.23
2022-09-22T23:28:09.657Z,98.18
2022-09-22T23:43:15.392Z,98.90
2022-09-22T23:58:20.914Z,98.43
